Latest Weather Observations for Maatsuyker Island

IDT60801

Issued at 8:01 pm EST Saturday 30 May 2015 (issued every 30 minutes, with the page automatically refreshed every 10 minutes)

About weather observations | Map of weather stations | Latest weather observations for TAS | Other Formats
Station Details ID: 094041 Name: MAATSUYKER ISLAND LIGHTHOUSE Lat: -43.66 Lon: 146.27 Height: 146.5 m
Data from the previous 72 hours. | See also: Recent months at Maatsuyker Island
Date/Time
EST
Temp
°C
App
Temp
°C
Dew
Point
Rel
Hum
%
Delta-T
°C
Wind Press
QNH
hPa
Press
MSL
hPa
Rain
since 9 am
mm
Dir
 
Spd
km/h
Gust
km/h
Spd
kts
Gust
kts
30/08:00pm 9.0 -10.5 4.3 72 2.1 NNW 96 117 52 63 995.7 - 6.8
30/07:52pm 8.3 -12.8 5.7 84 1.2 NNW 106 124 57 67 995.3 - 6.8
30/07:49pm 7.6 -13.5 6.5 93 0.5 NW 107 124 58 67 995.0 - 6.8
30/07:30pm 9.3 -8.8 4.4 71 2.2 NNW 89 109 48 59 996.0 - 6.4
30/07:23pm 8.7 -9.9 4.0 72 2.1 NNW 91 109 49 59 996.2 - 6.4
30/07:20pm 8.4 -10.9 4.1 74 1.9 NNW 95 106 51 57 996.0 - 6.4
30/07:14pm 8.4 -14.6 4.9 78 1.6 NNW 115 133 62 72 994.5 - 6.4
30/07:13pm 8.6 -14.8 4.8 77 1.7 NW 117 133 63 72 994.4 - 6.4
30/07:12pm 9.4 -10.1 4.5 71 2.2 NNW 96 133 52 72 995.0 - 6.4
30/07:00pm 9.7 -8.8 4.6 70 2.3 NNW 91 111 49 60 996.5 - 6.4
30/06:56pm 9.2 -9.0 4.0 70 2.3 NNW 89 109 48 59 996.6 - 6.4
30/06:51pm 8.7 -9.1 4.2 73 2.0 NNW 87 104 47 56 996.3 - 6.4
30/06:47pm 8.2 -14.1 2.6 68 2.4 NNW 109 130 59 70 995.7 - 6.4
30/06:44pm 8.3 -15.1 2.7 68 2.4 NW 115 130 62 70 995.3 - 6.4
30/06:42pm 8.6 -11.1 3.3 69 2.3 NNW 96 132 52 71 995.7 - 6.4
30/06:33pm 9.1 -7.9 4.2 71 2.2 NNW 83 104 45 56 996.4 - 6.4
30/06:30pm 9.2 -7.7 3.8 69 2.4 NNW 82 96 44 52 996.6 - 6.4
30/06:19pm 9.0 -9.0 3.3 67 2.5 NNW 87 100 47 54 996.5 - 6.4
30/06:05pm 8.8 -12.9 3.8 71 2.2 NW 107 126 58 68 995.7 - 6.4
30/06:04pm 9.0 -12.4 4.3 72 2.1 NW 106 122 57 66 996.4 - 6.4
30/06:03pm 9.4 -8.0 4.3 70 2.3 NNW 85 113 46 61 997.1 - 6.4
30/06:00pm 9.6 -7.5 4.0 68 2.5 NNW 83 100 45 54 997.1 997.2 6.4
30/05:42pm 9.3 -8.6 3.9 69 2.4 NW 87 107 47 58 996.8 - 6.4
30/05:30pm 9.1 -9.3 4.9 75 1.9 NW 91 104 49 56 997.6 - 6.4
30/05:17pm 8.5 -12.1 4.5 76 1.8 NW 102 120 55 65 996.9 - 6.4
30/05:09pm 7.8 -13.5 4.9 82 1.3 NW 106 119 57 64 997.1 - 6.4
30/05:07pm 8.6 -9.1 4.8 77 1.7 NW 87 113 47 61 997.7 - 6.4
30/05:00pm 9.6 -7.7 2.7 62 3.0 NNW 83 96 45 52 997.5 - 6.4
30/04:30pm 8.9 -8.3 3.2 67 2.5 NNW 83 102 45 55 997.6 - 6.4
30/04:13pm 9.1 -10.2 4.2 71 2.2 NW 95 113 51 61 997.3 - 6.4
30/04:00pm 8.4 -11.0 3.9 73 2.0 NW 95 106 51 57 997.7 - 6.2
30/03:40pm 7.4 -12.3 2.4 70 2.1 NNW 95 107 51 58 997.4 - 6.2
30/03:38pm 6.8 -16.8 3.8 81 1.3 NW 117 135 63 73 996.9 - 6.2
30/03:33pm 7.1 -17.7 4.4 83 1.2 NW 124 135 67 73 996.4 - 6.2
30/03:31pm 9.6 -10.0 2.7 62 3.0 NW 95 120 51 65 997.3 - 6.2
30/03:30pm 9.7 -10.0 2.0 58 3.3 NW 95 111 51 60 997.3 - 6.2
30/03:20pm 9.5 -11.1 -0.1 51 3.9 NW 98 117 53 63 996.8 - 6.2
30/03:00pm 9.6 -9.8 1.6 57 3.4 W 93 120 50 65 997.3 997.4 6.2
30/02:30pm 9.7 -10.9 2.3 60 3.2 NW 100 115 54 62 996.9 - 6.2
30/02:08pm 9.5 -12.0 1.4 57 3.4 NW 104 122 56 66 997.1 - 6.2
30/02:00pm 9.6 -12.2 2.1 59 3.2 NW 106 115 57 62 996.4 - 6.2
30/01:30pm 9.3 -12.9 2.9 64 2.8 NW 109 128 59 69 995.9 - 6.2
30/01:25pm 8.8 -13.7 1.1 58 3.2 NW 109 128 59 69 995.4 - 6.2
30/01:00pm 9.1 -12.4 4.7 74 2.0 NW 107 120 58 65 995.9 - 6.2
30/12:43pm 7.5 -13.8 5.5 87 0.9 NW 107 126 58 68 995.9 - 6.0
30/12:42pm 7.5 -13.8 7.3 99 0.1 NW 109 126 59 68 996.4 - 5.8
30/12:30pm 8.8 -12.4 6.2 84 1.2 NW 107 128 58 69 994.4 - 5.8
30/12:29pm 8.7 -12.6 5.7 81 1.4 NW 107 128 58 69 993.8 - 5.8
30/12:00pm 8.6 -12.5 6.0 84 1.2 NW 106 120 57 65 994.4 994.6 5.6
30/11:54am 8.7 -12.4 5.7 81 1.4 NW 106 119 57 64 994.3 - 5.6
30/11:30am 7.8 -11.1 7.0 95 0.4 NW 96 115 52 62 996.4 - 5.4
30/11:07am 5.7 -15.5 5.3 97 0.2 WNW 106 117 57 63 996.9 - 3.2
30/11:05am 9.2 -9.8 8.4 95 0.4 NNW 98 135 53 73 995.6 - 2.8
30/11:03am 10.7 -7.9 8.3 85 1.2 NNW 96 135 52 73 993.4 - 2.8
30/11:00am 10.7 -8.0 8.1 84 1.3 NNW 96 117 52 63 993.3 - 2.8
30/10:30am 10.5 -7.9 8.5 87 1.0 NNW 95 115 51 62 994.3 - 1.6
30/10:28am 10.7 -7.9 8.5 86 1.1 NNW 96 115 52 62 994.1 - 1.4
30/10:23am 10.4 -8.7 8.0 85 1.2 NNW 98 113 53 61 993.9 - 1.2
30/10:17am 10.7 -3.2 9.1 90 0.8 NNW 72 106 39 57 994.9 - 0.8
30/10:15am 10.7 -2.5 9.5 92 0.6 NNW 69 87 37 47 995.5 - 0.6
30/10:13am 10.5 -3.2 9.7 95 0.4 NNW 72 87 39 47 995.6 - 0.6
30/10:00am 12.1 -6.7 6.7 69 2.6 NNW 95 119 51 64 994.5 - 0.0
30/09:30am 12.0 -6.1 8.0 76 2.0 NNW 93 113 50 61 995.2 - 0.0
30/09:00am 12.0 -4.2 8.0 76 2.0 W 83 113 45 61 995.6 995.7 3.4
30/08:30am 11.8 -6.1 7.5 75 2.1 NNW 91 122 49 66 996.3 - 3.4
30/08:15am 11.4 -7.3 7.1 75 2.1 NNW 95 115 51 62 996.5 - 3.4
30/08:14am 11.4 -7.9 6.9 74 2.2 NNW 98 115 53 62 996.5 - 3.4
30/08:01am 11.5 -3.8 7.9 78 1.8 NNW 78 100 42 54 997.4 - 3.4
30/08:00am 11.4 -4.0 7.7 78 1.8 NNW 78 95 42 51 997.3 - 3.4
30/07:30am 10.9 -5.8 7.6 80 1.6 NNW 85 111 46 60 998.1 - 3.2
30/07:00am 11.9 -6.2 6.3 68 2.7 NNW 91 115 49 62 998.6 - 3.2
30/06:30am 11.1 -5.2 7.6 79 1.7 NNW 83 111 45 60 999.3 - 3.2
30/05:30am 11.7 -3.4 7.2 74 2.2 NNW 76 102 41 55 1000.8 - 3.0
30/05:00am 11.7 -5.1 7.0 73 2.3 NNW 85 107 46 58 1001.1 - 3.0
30/04:30am 11.1 -4.0 7.0 76 2.0 NNW 76 98 41 53 1001.3 - 3.0
30/04:00am 11.5 -2.9 7.0 74 2.2 NNW 72 96 39 52 1002.1 - 3.0
30/03:32am 11.3 -1.9 8.1 81 1.6 NNW 67 85 36 46 1003.1 - 3.0
30/03:30am 11.1 -2.4 8.1 82 1.5 NNW 69 85 37 46 1003.1 - 3.0
30/03:00am 11.1 -3.5 7.8 80 1.6 NNW 74 95 40 51 1003.2 1003.3 3.0
30/02:36am 10.8 -5.4 8.2 84 1.3 NNW 83 102 45 55 1003.5 - 3.0
30/02:30am 10.2 -6.2 8.8 91 0.7 NNW 85 102 46 55 1003.1 - 3.0
30/02:00am 11.5 -4.4 6.9 73 2.2 NNW 80 98 43 53 1004.0 - 2.6
30/01:30am 11.5 -5.5 7.8 78 1.8 NNW 87 107 47 58 1003.7 - 2.6
30/01:19am 11.5 -5.4 8.3 81 1.6 NNW 87 106 47 57 1003.9 - 2.6
30/01:18am 11.6 -6.1 8.2 79 1.7 NNW 91 106 49 57 1003.8 - 2.6
30/01:00am 11.5 -2.6 8.3 81 1.6 NNW 72 98 39 53 1004.3 - 2.6
30/12:30am 11.2 -2.3 8.2 82 1.5 NNW 69 89 37 48 1005.5 - 2.6
30/12:05am 10.6 -3.6 7.9 83 1.3 NNW 72 93 39 50 1005.4 - 2.6
30/12:00am 10.6 -3.9 8.2 85 1.2 NNW 74 89 40 48 1005.4 1005.6 2.6
 
Date/Time
EST
Temp
°C
App
Temp
°C
Dew
Point
Rel
Hum
%
Delta-T
°C
Wind Press
QNH
hPa
Press
MSL
hPa
Rain
since 9 am
mm
Dir
 
Spd
km/h
Gust
km/h
Spd
kts
Gust
kts
29/11:30pm 11.4 -3.6 7.5 77 1.9 NNW 76 98 41 53 1005.5 - 2.4
29/11:12pm 11.4 -3.3 7.1 75 2.1 NNW 74 96 40 52 1005.8 - 2.4
29/11:00pm 11.3 -3.6 7.8 79 1.7 NNW 76 93 41 50 1005.7 - 2.4
29/10:38pm 11.2 -4.0 8.2 82 1.5 NNW 78 96 42 52 1006.0 - 2.4
29/10:30pm 10.9 -4.4 7.8 81 1.5 NNW 78 95 42 51 1005.8 - 2.4
29/10:00pm 11.3 -4.6 6.9 74 2.1 NNW 80 102 43 55 1006.1 - 2.2
29/09:30pm 10.9 -4.7 8.3 84 1.3 NNW 80 102 43 55 1006.5 - 2.2
29/09:00pm 11.7 -3.4 7.2 74 2.2 NNW 76 95 41 51 1006.4 1006.6 2.2
29/08:45pm 11.4 -3.9 7.9 79 1.7 NNW 78 96 42 52 1006.6 - 2.2
29/08:30pm 11.3 -4.1 7.6 78 1.8 NNW 78 91 42 49 1006.8 - 2.2
29/08:00pm 11.2 -4.2 7.3 77 1.9 NNW 78 91 42 49 1006.3 - 2.2
29/07:32pm 11.2 -5.1 7.1 76 2.0 NNW 82 100 44 54 1006.2 - 2.2
29/07:30pm 11.1 -5.3 7.2 77 1.9 NNW 83 100 45 54 1005.9 - 2.2
29/07:00pm 11.2 -5.7 8.4 83 1.4 NNW 87 107 47 58 1006.2 - 2.2
29/06:59pm 11.1 -6.2 8.3 83 1.4 NNW 89 107 48 58 1005.9 - 2.2
29/06:51pm 11.2 -7.5 7.1 76 2.0 NNW 95 107 51 58 1005.0 - 2.2
29/06:42pm 10.8 -3.7 8.2 84 1.3 NNW 74 93 40 50 1005.9 - 2.2
29/06:30pm 11.3 -2.4 8.1 81 1.6 NNW 70 87 38 47 1006.1 - 2.0
29/06:07pm 11.2 -3.1 7.3 77 1.9 NNW 72 91 39 49 1006.1 - 2.0
29/06:00pm 11.2 -3.7 7.9 80 1.6 NNW 76 91 41 49 1006.4 1006.6 2.0
29/05:30pm 10.8 -4.9 7.9 82 1.4 NNW 80 100 43 54 1006.4 - 2.0
29/05:00pm 10.4 -3.1 8.4 87 1.0 NNW 69 89 37 48 1006.3 - 2.0
29/04:48pm 9.9 -3.5 8.7 92 0.6 NNW 69 87 37 47 1007.0 - 1.8
29/04:30pm 10.6 -3.1 7.5 81 1.5 NNW 69 85 37 46 1006.9 - 1.4
29/04:06pm 11.0 -4.2 6.8 75 2.0 NNW 76 95 41 51 1006.2 - 1.4
29/04:00pm 11.1 -4.0 7.2 77 1.9 NNW 76 93 41 50 1006.5 - 1.4
29/03:35pm 11.0 -3.9 6.4 73 2.2 NNW 74 95 40 51 1006.2 - 1.4
29/03:30pm 11.0 -3.5 6.6 74 2.1 NNW 72 87 39 47 1006.4 - 1.4
29/03:01pm - - - - - - - - - - - - -
29/03:00pm 10.4 -4.6 5.9 73 2.1 W 74 89 40 48 1006.7 1006.9 1.4
29/02:30pm 10.3 -5.4 6.0 75 2.0 NNW 78 100 42 54 1006.8 - 1.4
29/02:00pm 9.7 -5.5 6.5 80 1.5 NNW 76 95 41 51 1007.1 - 1.2
29/01:30pm 10.0 -4.3 5.7 74 2.0 NNW 70 89 38 48 1007.1 - 1.0
29/01:04pm 9.5 -6.5 6.5 81 1.4 NNW 80 100 43 54 1007.0 - 0.8
29/01:00pm 10.3 -5.7 4.6 68 2.6 NNW 78 93 42 50 1006.9 - 0.8
29/12:30pm 9.7 -6.0 4.4 69 2.4 NNW 76 95 41 51 1007.4 - 0.8
29/12:00pm 8.8 -6.4 4.8 76 1.8 NW 74 96 40 52 1007.4 - 0.8
29/11:51am 8.0 -8.3 5.1 82 1.3 NNW 80 98 43 53 1008.2 - 0.4
29/11:44am 9.1 -8.2 4.7 74 2.0 NNW 85 96 46 52 1006.9 - 0.4
29/11:34am 9.5 -4.1 4.6 71 2.2 NNW 65 87 35 47 1007.7 - 0.2
29/11:30am 9.9 -3.2 5.1 72 2.2 NNW 63 76 34 41 1008.0 - 0.2
29/11:25am 9.7 -3.1 4.6 70 2.3 NNW 61 72 33 39 1008.1 - 0.2
29/11:03am 10.0 -6.4 4.5 68 2.5 NNW 80 98 43 53 1007.6 - 0.2
29/11:00am 9.9 -7.2 3.8 66 2.7 NNW 83 98 45 53 1007.4 - 0.2
29/10:45am 9.3 -6.6 3.3 66 2.6 NW 76 95 41 51 1007.1 - 0.2
29/10:30am 9.6 -5.8 4.0 68 2.5 NNW 74 91 40 49 1007.7 - 0.0
29/10:00am 9.4 -6.1 3.5 66 2.6 NNW 74 91 40 49 1007.1 - 0.0
29/09:55am 9.0 -4.9 4.5 73 2.0 NW 67 89 36 48 1006.8 - 0.0
29/09:48am 8.2 -4.5 5.1 81 1.4 NW 61 69 33 37 1008.3 - 0.0
29/09:32am 9.5 -7.5 3.6 66 2.6 NW 82 100 44 54 1006.6 - 0.0
29/09:30am 9.5 -7.4 1.9 59 3.2 NW 80 91 43 49 1007.4 - 0.0
29/09:00am 9.1 -6.4 3.6 68 2.4 W 74 91 40 49 1007.0 1007.2 16.4
29/08:46am 8.6 -6.7 4.6 76 1.8 NW 74 93 40 50 1006.4 - 16.4
29/08:30am 8.4 -8.9 2.8 68 2.4 NW 83 93 45 50 1006.6 - 16.4
29/08:17am 7.9 -10.2 2.7 69 2.2 NW 87 106 47 57 1006.8 - 16.4
29/08:00am 9.2 -8.1 3.0 65 2.7 NW 83 98 45 53 1005.8 - 16.0
29/07:33am 8.7 -7.3 2.6 65 2.6 NW 76 95 41 51 1005.4 - 16.0
29/07:30am 8.6 -6.5 3.6 71 2.2 NW 72 89 39 48 1005.7 - 16.0
29/07:29am 8.6 -6.2 3.0 68 2.4 NNW 70 89 38 48 1006.0 - 16.0
29/07:21am 8.0 -5.9 2.8 70 2.2 NNW 65 74 35 40 1006.0 - 16.0
29/07:07am 8.7 -9.3 3.2 68 2.4 NW 87 107 47 58 1005.0 - 16.0
29/07:00am 9.0 -10.1 1.3 58 3.2 NW 91 96 49 52 1005.1 - 16.0
29/06:30am 8.8 -6.1 2.2 63 2.8 NW 70 83 38 45 1005.5 - 16.0
29/06:11am 7.7 -6.8 3.5 75 1.8 NNW 69 80 37 43 1005.5 - 16.0
29/06:00am 7.2 -8.4 2.7 73 1.9 WNW 74 124 40 67 1005.1 1005.3 16.0
29/05:54am 8.1 -9.9 3.0 70 2.2 NW 87 124 47 67 1003.5 - 16.0
29/05:30am 8.3 -7.7 2.9 69 2.3 NW 76 95 41 51 1004.6 - 16.0
29/05:22am 7.1 -9.2 3.1 76 1.7 NW 78 96 42 52 1005.6 - 16.0
29/05:00am 8.0 -10.0 1.2 62 2.8 NW 85 96 46 52 1005.0 - 16.0
29/04:45am 7.7 -11.1 0.8 61 2.8 NW 89 117 48 63 1005.0 - 16.0
29/04:36am 7.5 -10.6 2.8 72 2.0 NW 87 117 47 63 1003.0 - 16.0
29/04:30am 7.7 -9.3 1.4 64 2.6 NW 80 96 43 52 1004.4 - 16.0
29/04:01am 5.9 -10.0 3.3 83 1.1 WNW 76 95 41 51 1004.7 - 16.0
29/04:00am 5.9 -10.3 3.6 85 1.0 WNW 78 95 42 51 1004.7 - 16.0
29/03:57am 5.4 -11.8 3.5 87 0.8 WNW 83 102 45 55 1004.8 - 16.0
29/03:50am 5.6 -13.9 3.5 86 0.9 WNW 95 102 51 55 1004.5 - 16.0
29/03:35am 5.9 -9.9 3.8 86 0.9 WNW 76 95 41 51 1004.6 - 15.8
29/03:30am 5.5 -11.1 3.6 87 0.8 WNW 80 95 43 51 1004.3 - 15.8
29/03:27am 5.6 -11.4 3.7 87 0.8 WNW 82 95 44 51 1004.2 - 15.8
29/03:18am 6.6 -7.7 4.8 88 0.8 NW 69 87 37 47 1003.5 - 15.4
29/03:00am 7.0 -8.8 4.0 81 1.3 NW 76 89 41 48 1002.9 1003.0 14.0
29/02:33am 4.9 -12.2 4.0 94 0.4 NW 83 96 45 52 1003.2 - 13.8
29/02:30am 4.8 -18.7 4.1 95 0.3 NW 117 137 63 74 1001.9 - 13.4
29/02:28am 5.1 -18.9 3.4 89 0.7 NW 119 137 64 74 1000.7 - 13.2
29/02:27am 6.4 -10.7 3.1 79 1.4 NW 82 130 44 70 1001.7 - 13.2
29/02:14am 7.4 -8.7 2.1 69 2.2 NW 76 95 41 51 1002.8 - 13.0
29/02:00am 7.2 -8.5 4.2 81 1.3 WNW 76 89 41 48 1003.5 - 13.0
29/01:52am 7.3 -7.5 4.8 84 1.1 WNW 72 83 39 45 1003.5 - 13.0
29/01:31am 8.0 -7.9 3.1 71 2.1 NNW 76 95 41 51 1001.5 - 13.0
29/01:30am 8.1 -7.8 3.0 70 2.2 NNW 76 91 41 49 1001.6 - 13.0
29/01:04am 6.1 -10.9 4.7 91 0.6 NNW 83 95 45 51 1001.8 - 13.0
29/01:02am 5.7 -16.3 4.3 91 0.6 NW 109 128 59 69 1001.0 - 13.0
29/01:00am 6.3 -16.2 3.7 83 1.1 NW 111 128 60 69 1001.0 - 12.8
29/12:59am 6.5 -16.4 3.5 81 1.3 NW 113 128 61 69 1001.1 - 12.8
29/12:54am 7.1 -11.4 4.4 83 1.2 NW 91 111 49 60 1001.7 - 12.6
29/12:30am 9.0 -7.6 3.8 70 2.3 NW 80 95 43 51 1001.9 - 12.6
29/12:23am 9.0 -8.2 3.3 67 2.5 NW 83 93 45 50 1001.3 - 12.6
29/12:03am 8.2 -5.1 3.9 74 1.9 NNW 63 82 34 44 1002.1 - 12.6
29/12:00am 8.0 -4.9 4.1 76 1.7 NNW 61 70 33 38 1002.6 1002.7 12.6
 
Date/Time
EST
Temp
°C
App
Temp
°C
Dew
Point
Rel
Hum
%
Delta-T
°C
Wind Press
QNH
hPa
Press
MSL
hPa
Rain
since 9 am
mm
Dir
 
Spd
km/h
Gust
km/h
Spd
kts
Gust
kts
28/11:58pm 7.8 -5.2 3.7 75 1.8 NNW 61 67 33 36 1002.5 - 12.6
28/11:35pm 7.9 -8.6 4.0 76 1.7 NW 80 100 43 54 1002.0 - 12.0
28/11:30pm 8.6 -7.5 4.3 74 1.9 NW 78 93 42 50 1002.3 - 12.0
28/11:09pm 7.4 -9.5 4.2 80 1.4 NW 82 87 44 47 1002.3 - 12.0
28/11:00pm 7.6 -12.6 4.7 82 1.3 NW 100 119 54 64 1001.3 - 12.0
28/10:59pm 7.6 -12.5 4.9 83 1.2 NW 100 119 54 64 1001.4 - 12.0
28/10:54pm 8.1 -13.2 4.8 80 1.5 NW 106 117 57 63 1000.4 - 12.0
28/10:30pm 8.1 -9.2 2.7 69 2.3 NW 83 104 45 56 1001.5 - 12.0
28/10:28pm 7.9 -10.2 2.5 69 2.3 NW 87 106 47 57 1001.6 - 12.0
28/10:20pm 7.9 -12.3 2.7 69 2.2 NW 98 106 53 57 1001.1 - 12.0
28/10:06pm 8.6 -8.0 3.8 72 2.1 NW 80 98 43 53 1001.4 - 12.0
28/10:00pm 8.8 -8.2 3.3 68 2.4 NW 82 93 44 50 1001.7 - 12.0
28/09:50pm 8.9 -7.0 5.4 79 1.6 NW 78 96 42 52 1002.4 - 12.0
28/09:44pm 9.2 -6.6 3.8 69 2.4 NW 76 93 41 50 1001.7 - 11.8
28/09:41pm 9.4 -2.5 5.3 75 1.9 NNW 57 83 31 45 1001.8 - 11.8
28/09:32pm 8.9 -1.1 6.1 82 1.3 NNW 48 57 26 31 1002.6 - 11.2
28/09:30pm 9.3 -4.5 5.4 76 1.8 NNW 67 87 36 47 1002.3 - 11.2
28/09:28pm 10.0 -4.3 4.5 68 2.5 NNW 69 87 37 47 1001.9 - 11.2
28/09:00pm 9.4 -3.8 4.5 71 2.2 NNW 63 80 34 43 1001.7 1001.9 11.2
28/08:39pm 9.5 -6.1 2.8 63 2.9 NNW 74 95 40 51 1001.0 - 11.2
28/08:30pm 9.5 -5.9 2.0 59 3.2 NNW 72 89 39 48 1001.5 - 11.2
28/08:00pm 9.5 -8.2 4.6 71 2.2 NW 87 100 47 54 1000.9 - 11.2
28/07:30pm 9.7 -5.8 5.1 73 2.1 NNW 76 93 41 50 1000.7 - 11.2
28/07:00pm 9.3 -6.9 5.6 78 1.7 NNW 80 98 43 53 1001.1 - 11.2
28/06:43pm 9.9 -5.2 5.3 73 2.1 NW 74 93 40 50 1001.0 - 11.2
28/06:30pm 9.6 -6.8 6.4 80 1.5 NW 82 96 44 52 1000.9 - 11.2
28/06:01pm 9.6 -5.0 6.2 79 1.6 NW 72 96 39 52 1001.2 - 10.6
28/06:00pm 9.6 -4.9 6.4 80 1.5 NW 72 87 39 47 1001.1 1001.3 10.6
28/05:54pm 9.1 -7.6 6.1 81 1.4 NW 83 102 45 55 1000.8 - 10.6
28/05:42pm 8.7 -6.6 6.1 84 1.2 NW 76 87 41 47 1001.2 - 10.0
28/05:40pm 8.7 -2.3 6.6 87 1.0 NNW 54 85 29 46 1001.8 - 9.8
28/05:30pm 8.9 -0.6 6.6 85 1.1 NNW 46 67 25 36 1001.5 - 9.4
28/05:29pm 8.9 -0.5 7.0 88 0.9 NNW 46 67 25 36 1001.7 - 9.4
28/05:09pm 8.4 -0.9 7.4 93 0.5 NNW 46 57 25 31 1001.9 - 9.4
28/05:00pm 8.1 -4.8 7.5 96 0.3 NW 65 74 35 40 1001.3 - 9.0
28/04:42pm 8.2 -3.9 6.3 88 0.9 NW 59 65 32 35 1001.7 - 8.0
28/04:38pm 8.9 0.9 7.4 90 0.7 NNW 39 59 21 32 1002.1 - 8.0
28/04:30pm 8.7 1.1 7.4 91 0.6 NNW 37 48 20 26 1002.1 - 7.8
28/04:08pm 8.8 -0.6 7.1 89 0.8 NNW 46 65 25 35 1002.0 - 7.0
28/04:00pm 8.6 -1.3 6.5 87 1.0 NNW 48 65 26 35 1001.9 - 6.8
28/03:36pm 8.9 -1.2 7.4 90 0.7 NNW 50 69 27 37 1002.1 - 5.8
28/03:30pm 8.9 -2.5 7.4 90 0.7 NNW 57 69 31 37 1002.0 - 5.6
28/03:27pm 9.1 -2.3 7.4 89 0.8 NNW 57 69 31 37 1001.7 - 5.2
28/03:00pm 8.8 -6.0 6.9 88 0.9 W 74 87 40 47 1001.2 1001.4 4.2
28/02:32pm 9.0 -6.1 7.3 89 0.8 NW 76 95 41 51 1000.9 - 3.4
28/02:30pm 9.1 -5.6 7.4 89 0.8 NW 74 83 40 45 1001.4 - 3.2
28/02:00pm 8.6 -6.3 8.0 96 0.3 NW 76 87 41 47 1001.4 - 2.4
28/01:50pm 9.9 -4.2 8.1 88 0.9 NW 72 82 39 44 1001.2 - 2.0
28/01:38pm 9.9 0.6 9.3 96 0.3 NNW 48 70 26 38 1001.7 - 2.0
28/01:30pm 9.9 0.9 8.7 92 0.6 NNW 46 57 25 31 1002.1 - 1.8
28/01:01pm 9.7 -0.9 8.5 92 0.6 NNW 54 72 29 39 1002.5 - 1.8
28/01:00pm 9.7 -1.3 8.3 91 0.7 NNW 56 72 30 39 1002.5 - 1.8
28/12:59pm 9.6 -1.6 8.4 92 0.6 NNW 57 76 31 41 1002.5 - 1.8
28/12:30pm 10.2 -1.7 8.6 90 0.8 NNW 61 74 33 40 1002.3 - 1.6
28/12:16pm 9.7 -2.7 9.5 99 0.1 NNW 65 83 35 45 1002.5 - 1.4
28/12:07pm 9.3 -5.3 9.3 100 0.0 NNW 76 83 41 45 1001.9 - 1.2
28/12:03pm 9.3 -9.0 8.9 97 0.2 NW 95 113 51 61 1001.4 - 1.0
28/12:00pm 8.9 -10.8 8.7 99 0.1 NW 102 113 55 61 1000.8 1001.0 0.6
28/11:59am 8.8 -10.9 8.6 99 0.1 NW 102 113 55 61 1000.6 - 0.6
28/11:56am 10.1 -6.1 8.1 87 1.0 NW 83 102 45 55 1001.5 - 0.0
28/11:54am 11.0 -4.7 7.7 80 1.6 NW 80 96 43 52 1002.6 - 0.0
28/11:53am 12.5 1.8 8.1 74 2.2 NNW 54 96 29 52 1002.9 - 0.0
28/11:40am 13.0 2.2 7.5 69 2.7 NNW 54 76 29 41 1002.4 - 0.0
28/11:30am 13.3 2.4 7.4 67 2.9 NNW 54 69 29 37 1002.5 - 0.0
28/11:14am 13.5 3.0 7.4 66 3.0 NNW 52 87 28 47 1002.8 - 0.0
28/11:00am 13.1 3.3 7.2 67 2.9 NNW 48 67 26 36 1003.4 - 0.0
28/10:30am 12.9 3.1 7.2 68 2.8 NNW 48 67 26 36 1003.9 - 0.0
28/10:06am 12.6 2.7 6.8 68 2.8 NNW 48 69 26 37 1004.0 - 0.0
28/10:00am 12.8 3.0 7.1 68 2.8 NNW 48 63 26 34 1004.3 - 0.0
28/09:30am 12.3 2.1 7.0 70 2.6 NNW 50 70 27 38 1004.4 - 0.0
28/09:05am 12.3 2.5 6.9 69 2.6 NNW 48 69 26 37 1004.5 - 0.0
28/09:00am 12.3 2.8 6.9 69 2.6 WNW 46 65 25 35 1004.6 1004.8 4.0
28/08:30am 12.1 2.0 7.2 72 2.4 NNW 50 69 27 37 1005.0 - 4.0
28/08:00am 11.9 1.3 6.9 71 2.4 NNW 52 76 28 41 1005.1 - 4.0
28/07:30am 12.0 1.6 6.1 67 2.8 NNW 50 70 27 38 1005.0 - 4.0
28/07:00am 12.0 0.3 6.1 67 2.8 NNW 57 78 31 42 1004.9 - 4.0
28/06:31am 11.7 1.4 6.7 71 2.4 NNW 50 72 27 39 1005.2 - 4.0
28/06:30am 11.7 1.4 6.7 71 2.4 NNW 50 61 27 33 1005.1 - 4.0
28/06:00am 11.0 3.6 8.2 83 1.4 NW 37 59 20 32 1005.7 1005.9 4.0
28/05:30am 11.3 2.4 7.6 78 1.8 NNW 44 67 24 36 1005.7 - 4.0
28/05:00am 11.5 3.5 7.4 76 2.0 NNW 39 59 21 32 1005.9 - 4.0
28/04:54am 11.3 2.9 7.4 77 1.9 NNW 41 59 22 32 1005.8 - 4.0
28/04:30am 11.3 2.5 7.4 77 1.9 NNW 43 56 23 30 1006.1 - 4.0
28/04:00am 10.8 1.3 8.4 85 1.2 NNW 48 61 26 33 1006.5 - 4.0
28/03:38am 11.6 2.6 7.1 74 2.2 NNW 44 63 24 34 1006.4 - 4.0
28/03:30am 11.8 2.7 6.8 71 2.4 NNW 44 59 24 32 1006.7 - 4.0
28/03:08am 11.6 2.5 6.6 71 2.4 NNW 44 63 24 34 1006.9 - 4.0
28/03:00am 11.6 2.1 6.8 72 2.3 NNW 46 63 25 34 1007.1 1007.3 4.0
28/02:47am 11.5 2.2 6.0 69 2.6 NNW 44 65 24 35 1007.2 - 4.0
28/02:30am 11.5 2.5 6.2 70 2.5 NNW 43 56 23 30 1007.4 - 4.0
28/02:04am 11.3 2.3 6.5 72 2.3 NNW 43 61 23 33 1007.4 - 4.0
28/02:00am 11.3 2.2 6.7 73 2.2 NNW 44 59 24 32 1007.5 - 4.0
28/01:52am 11.4 2.5 6.8 73 2.2 NNW 43 61 23 33 1007.6 - 4.0
28/01:30am 11.2 2.9 7.9 80 1.6 NNW 41 56 22 30 1007.9 - 4.0
28/01:00am 11.6 2.9 7.7 77 1.9 NNW 43 57 23 31 1008.3 - 4.0
28/12:31am 11.6 2.8 7.9 78 1.8 NNW 44 63 24 34 1008.3 - 4.0
28/12:30am 11.6 3.0 8.2 79 1.7 NNW 43 59 23 32 1008.4 - 4.0
28/12:00am 11.4 2.6 8.2 81 1.6 NNW 44 63 24 34 1008.6 1008.8 4.0
 
Date/Time
EST
Temp
°C
App
Temp
°C
Dew
Point
Rel
Hum
%
Delta-T
°C
Wind Press
QNH
hPa
Press
MSL
hPa
Rain
since 9 am
mm
Dir
 
Spd
km/h
Gust
km/h
Spd
kts
Gust
kts
27/11:59pm 11.3 2.7 8.3 82 1.5 NNW 43 63 23 34 1008.7 - 4.0
27/11:30pm 10.4 2.8 9.0 91 0.7 NNW 39 50 21 27 1009.1 - 3.8
27/11:21pm 10.4 2.1 9.4 93 0.5 NNW 43 61 23 33 1009.3 - 3.8
27/11:00pm 10.8 2.8 9.0 89 0.9 NNW 41 54 22 29 1009.1 - 3.8
27/10:50pm 11.0 3.7 8.6 85 1.2 NNW 37 54 20 29 1009.1 - 3.8
27/10:30pm 10.7 5.7 9.5 92 0.6 NNW 26 35 14 19 1009.8 - 3.8
27/10:00pm 10.5 1.6 9.3 92 0.6 NNW 46 61 25 33 1009.7 - 3.8
27/09:47pm 10.8 4.1 9.6 92 0.6 NNW 35 56 19 30 1009.7 - 3.4
27/09:30pm 10.8 4.5 9.6 92 0.6 NNW 33 46 18 25 1010.0 - 3.4
27/09:00pm 10.5 4.0 8.9 90 0.8 NNW 33 44 18 24 1009.8 1010.0 3.2
27/08:30pm 10.5 2.6 7.8 83 1.3 NNW 39 50 21 27 1009.6 - 3.2

Other Formats:

Comma delimited format used in spreadsheet applications
http://www.bom.gov.au/fwo/IDT60801/IDT60801.94962.axf

JavaScript Object Notation format (JSON) in row-major order
http://www.bom.gov.au/fwo/IDT60801/IDT60801.94962.json